Time;durP1;ratioP1;P1;durP2;ratioP2;P2;SDS_P1;SDS_P2;PMS_P1;PMS_P2;Temp;Humidity;BMP_temperature;BMP_pressure;BME280_temperature;BME280_humidity;BME280_pressure;Samples;Min_cycle;Max_cycle;Signal;HPM_P1;HPM_P2
2022/08/06 00:00:22;;;;;;;1.80;1.10;;;26.60;99.90;;;;;;5006836;28;20669;-96
2022/08/06 00:02:57;;;;;;;2.63;1.20;;;26.70;99.90;;;;;;5001002;28;20224;-94
2022/08/06 00:05:29;;;;;;;1.27;1.10;;;26.70;99.90;;;;;;5004559;28;20221;-93
2022/08/06 00:08:08;;;;;;;4.10;1.50;;;26.80;99.90;;;;;;5000270;28;20213;-93
2022/08/06 00:10:43;;;;;;;1.97;1.10;;;26.80;99.90;;;;;;5001554;28;20217;-93
2022/08/06 00:13:20;;;;;;;3.53;1.30;;;27.10;99.90;;;;;;5000705;28;20277;-93
2022/08/06 00:15:58;;;;;;;1.63;0.93;;;27.10;99.90;;;;;;5001385;28;20265;-93
2022/08/06 00:18:51;;;;;;;3.43;1.00;;;26.90;99.90;;;;;;4999965;28;20206;-92
2022/08/06 00:21:23;;;;;;;2.30;1.33;;;26.80;99.90;;;;;;4999874;28;20364;-92
2022/08/06 00:24:11;;;;;;;3.67;1.10;;;26.70;99.90;;;;;;4999406;28;20210;-93
2022/08/06 00:26:58;;;;;;;1.50;1.37;;;26.70;99.90;;;;;;5000242;28;20217;-92
2022/08/06 00:29:37;;;;;;;2.77;1.67;;;26.60;99.90;;;;;;5000016;28;20210;-93
2022/08/06 00:32:18;;;;;;;2.17;1.37;;;26.60;99.90;;;;;;5000352;28;20217;-92
2022/08/06 00:34:57;;;;;;;1.73;1.20;;;26.60;99.90;;;;;;5004090;28;20284;-92
2022/08/06 00:40:08;;;;;;;2.23;1.10;;;26.20;99.90;;;;;;5857967;23;20236;-93
2022/08/06 00:42:48;;;;;;;3.20;1.30;;;26.30;99.90;;;;;;5051640;28;20228;-93
2022/08/06 00:45:24;;;;;;;1.80;1.20;;;26.20;99.90;;;;;;5057502;28;20235;-94
2022/08/06 00:51:10;;;;;;;2.00;1.10;;;26.10;99.90;;;;;;5056705;28;20209;-94
2022/08/06 00:53:57;;;;;;;3.70;1.20;;;25.80;99.90;;;;;;5057106;28;20223;-94
2022/08/06 00:56:33;;;;;;;2.23;1.23;;;26.00;99.90;;;;;;5058136;28;20215;-94
2022/08/06 01:05:01;;;;;;;2.30;1.07;;;26.00;99.90;;;;;;5113826;23;20248;-93
2022/08/06 01:07:53;;;;;;;2.90;1.27;;;25.70;99.90;;;;;;5121853;23;20240;-92
2022/08/06 01:13:28;;;;;;;1.50;0.90;;;26.00;99.90;;;;;;5024420;28;20232;-94
2022/08/06 01:16:28;;;;;;;3.27;1.47;;;26.10;99.90;;;;;;5023668;28;20238;-93
2022/08/06 01:19:12;;;;;;;2.57;1.07;;;26.50;99.90;;;;;;5018779;28;20221;-94
2022/08/06 01:22:16;;;;;;;2.67;1.30;;;27.00;99.90;;;;;;5022083;28;20228;-93
2022/08/06 01:25:38;;;;;;;1.57;1.20;;;27.30;99.90;;;;;;5024705;28;20205;-94
2022/08/06 01:28:51;;;;;;;2.87;1.37;;;27.50;99.90;;;;;;4988557;28;20209;-91
2022/08/06 01:31:31;;;;;;;1.27;1.17;;;27.80;99.90;;;;;;5029805;28;20202;-93
2022/08/06 01:34:12;;;;;;;2.07;1.40;;;27.60;99.90;;;;;;5028262;28;20213;-93
2022/08/06 01:36:50;;;;;;;1.70;1.00;;;27.90;99.90;;;;;;5028352;28;20233;-94
2022/08/06 01:42:32;;;;;;;1.40;1.00;;;27.80;99.90;;;;;;5035347;28;20224;-94
2022/08/06 01:48:30;;;;;;;1.47;1.00;;;27.90;99.90;;;;;;5034482;28;20232;-94
2022/08/06 01:57:25;;;;;;;1.30;0.90;;;26.20;99.90;;;;;;5031409;28;20213;-95
2022/08/06 02:03:11;;;;;;;2.70;1.23;;;25.50;99.90;;;;;;5017597;28;20213;-95
2022/08/06 02:06:24;;;;;;;2.03;1.40;;;25.30;99.90;;;;;;5025135;28;20276;-94
2022/08/06 02:09:18;;;;;;;1.97;1.43;;;24.90;99.90;;;;;;5024174;28;20233;-95
2022/08/06 02:12:07;;;;;;;3.00;1.30;;;24.50;99.90;;;;;;5032847;28;20212;-95
2022/08/06 02:14:44;;;;;;;1.83;1.30;;;24.20;99.90;;;;;;5013438;28;20384;-95
2022/08/06 02:25:15;;;;;;;2.77;1.60;;;23.10;99.90;;;;;;4998233;28;20227;-96
2022/08/06 02:27:57;;;;;;;3.30;1.40;;;22.90;99.90;;;;;;5006744;28;20210;-96
2022/08/06 02:30:34;;;;;;;2.67;1.67;;;22.70;99.90;;;;;;5000058;28;20289;-96
2022/08/06 02:33:13;;;;;;;3.33;1.53;;;22.70;99.90;;;;;;5001224;28;20214;-96
2022/08/06 02:35:52;;;;;;;1.40;1.10;;;22.50;99.90;;;;;;5003129;28;20232;-96
2022/08/06 02:41:47;;;;;;;2.60;1.70;;;22.30;99.90;;;;;;5012443;28;20216;-96
2022/08/06 02:44:32;;;;;;;2.53;1.40;;;22.30;99.90;;;;;;5011163;28;20214;-96
2022/08/06 02:47:10;;;;;;;3.80;1.50;;;22.10;99.90;;;;;;5013946;28;20198;-96
2022/08/06 02:52:51;;;;;;;2.17;1.63;;;22.00;99.90;;;;;;5012664;28;20211;-96
2022/08/06 02:55:46;;;;;;;3.63;1.57;;;21.90;99.90;;;;;;5005938;28;20274;-96
2022/08/06 02:58:25;;;;;;;1.23;1.13;;;21.90;99.90;;;;;;5008640;28;20214;-96
2022/08/06 03:04:10;;;;;;;5.33;1.80;;;21.70;99.90;;;;;;5012418;28;20194;-96
2022/08/06 03:06:47;;;;;;;2.20;1.57;;;21.60;99.90;;;;;;5000840;28;20237;-95
2022/08/06 03:09:21;;;;;;;2.67;1.50;;;21.50;99.90;;;;;;5007935;28;20214;-95
2022/08/06 03:11:56;;;;;;;2.57;1.40;;;21.40;99.90;;;;;;5000817;28;20213;-96
2022/08/06 03:14:32;;;;;;;2.50;1.63;;;21.40;99.90;;;;;;5010140;28;20718;-96
2022/08/06 03:17:32;;;;;;;1.60;1.43;;;21.30;99.90;;;;;;5005080;28;20230;-95
2022/08/06 03:20:08;;;;;;;1.70;1.60;;;21.20;99.90;;;;;;5006565;28;20218;-95
2022/08/06 03:22:58;;;;;;;1.73;1.23;;;21.10;99.90;;;;;;4998164;28;20187;-95
2022/08/06 03:28:36;;;;;;;2.43;1.43;;;20.90;99.90;;;;;;5008703;28;20274;-96
2022/08/06 03:31:13;;;;;;;4.00;1.80;;;20.80;99.90;;;;;;5015160;28;20232;-96
2022/08/06 03:33:47;;;;;;;4.83;1.73;;;20.70;99.90;;;;;;5019592;28;20249;-94
2022/08/06 03:39:13;;;;;;;3.23;1.40;;;20.60;99.90;;;;;;5019096;28;20266;-95
2022/08/06 03:44:27;;;;;;;5.20;1.90;;;20.40;99.90;;;;;;5250497;23;20348;-96
2022/08/06 03:47:32;;;;;;;5.57;1.90;;;20.30;99.90;;;;;;5056021;28;20252;-96
2022/08/06 03:50:22;;;;;;;7.00;2.67;;;20.20;99.90;;;;;;5048665;28;20219;-96
2022/08/06 03:53:02;;;;;;;15.70;4.87;;;20.10;99.90;;;;;;5049910;28;20219;-95
2022/08/06 03:55:41;;;;;;;11.30;5.43;;;19.80;99.90;;;;;;5049804;28;20205;-95
2022/08/06 03:58:18;;;;;;;11.87;4.57;;;19.50;99.90;;;;;;5049357;28;20227;-95
2022/08/06 04:01:03;;;;;;;4.23;2.30;;;19.10;99.90;;;;;;5048917;28;20193;-96
2022/08/06 04:03:40;;;;;;;2.57;1.70;;;18.90;99.90;;;;;;5049651;28;20211;-96
2022/08/06 04:06:15;;;;;;;3.77;2.30;;;18.90;99.90;;;;;;5049218;28;20212;-96
2022/08/06 04:08:50;;;;;;;3.80;2.20;;;18.80;99.90;;;;;;5049920;28;20216;-96
2022/08/06 04:11:23;;;;;;;2.83;2.00;;;18.80;99.90;;;;;;5049384;28;20201;-93
2022/08/06 04:14:16;;;;;;;2.83;2.00;;;18.80;99.90;;;;;;5050261;28;20201;-94
2022/08/06 04:16:56;;;;;;;3.30;2.10;;;18.70;99.90;;;;;;5063800;23;20236;-94
2022/08/06 04:19:32;;;;;;;3.53;2.00;;;18.70;99.90;;;;;;5018718;28;20205;-95
2022/08/06 04:22:10;;;;;;;6.43;2.20;;;18.60;99.90;;;;;;5030840;28;20214;-95
2022/08/06 04:25:03;;;;;;;2.63;2.17;;;18.60;99.90;;;;;;5044591;23;20280;-94
2022/08/06 04:27:44;;;;;;;4.67;2.30;;;18.50;99.90;;;;;;5009910;28;20234;-93
2022/08/06 04:30:26;;;;;;;2.83;2.00;;;18.50;99.90;;;;;;5010315;28;20248;-94
2022/08/06 04:32:59;;;;;;;4.30;2.30;;;18.40;99.90;;;;;;5009008;28;20206;-93
2022/08/06 04:35:34;;;;;;;4.40;1.90;;;18.40;99.90;;;;;;5010107;28;20206;-96
2022/08/06 04:38:27;;;;;;;2.67;2.00;;;18.30;99.90;;;;;;5013183;28;20357;-96
2022/08/06 04:41:01;;;;;;;1.80;1.70;;;18.30;99.90;;;;;;5011766;28;20232;-95
2022/08/06 04:43:45;;;;;;;3.87;1.90;;;18.30;99.90;;;;;;5011006;28;20202;-96
2022/08/06 04:46:25;;;;;;;2.33;2.07;;;18.20;99.90;;;;;;5010667;28;20206;-94
2022/08/06 04:48:59;;;;;;;3.33;2.03;;;18.10;99.90;;;;;;5011227;28;20329;-96
2022/08/06 04:51:34;;;;;;;2.33;2.00;;;18.10;99.90;;;;;;5009669;28;20210;-96
2022/08/06 04:57:14;;;;;;;2.80;2.00;;;18.00;99.90;;;;;;5010379;28;20706;-96
2022/08/06 05:00:02;;;;;;;3.63;1.80;;;18.00;99.90;;;;;;5015416;28;20206;-96
2022/08/06 05:02:33;;;;;;;2.50;1.37;;;18.00;99.90;;;;;;5017241;28;20222;-96
2022/08/06 05:05:06;;;;;;;3.80;1.60;;;18.00;99.90;;;;;;5017238;28;20190;-96
2022/08/06 05:07:43;;;;;;;4.23;1.60;;;18.00;99.90;;;;;;5017479;28;20214;-96
2022/08/06 05:10:25;;;;;;;2.13;1.60;;;18.00;99.90;;;;;;5017275;28;20229;-96
2022/08/06 05:13:01;;;;;;;3.40;1.70;;;17.90;99.90;;;;;;5017913;28;20190;-94
2022/08/06 05:15:40;;;;;;;3.27;1.60;;;17.90;99.90;;;;;;5016856;28;20269;-94
2022/08/06 05:18:26;;;;;;;1.87;1.50;;;17.90;99.90;;;;;;5003063;28;20237;-94
2022/08/06 05:21:35;;;;;;;1.30;1.20;;;17.90;99.90;;;;;;4997792;28;20237;-94
2022/08/06 05:24:30;;;;;;;4.33;1.63;;;17.90;99.90;;;;;;5002646;28;20213;-95
2022/08/06 05:27:23;;;;;;;4.00;1.50;;;17.90;99.90;;;;;;4998241;28;20286;-94
2022/08/06 05:30:14;;;;;;;2.70;1.70;;;17.90;99.90;;;;;;5006085;28;20281;-94
2022/08/06 05:32:46;;;;;;;1.70;1.53;;;17.80;99.90;;;;;;4996991;28;20260;-95
2022/08/06 05:35:26;;;;;;;2.00;1.40;;;17.80;99.90;;;;;;5007246;28;20256;-94
2022/08/06 05:38:11;;;;;;;1.47;1.30;;;17.80;99.90;;;;;;4997765;28;20297;-94
2022/08/06 05:41:07;;;;;;;1.50;1.17;;;17.70;99.90;;;;;;4999321;28;20220;-95
2022/08/06 05:43:41;;;;;;;3.10;1.50;;;17.80;99.90;;;;;;5003805;28;20309;-95
2022/08/06 05:49:36;;;;;;;1.97;1.40;;;17.70;99.90;;;;;;5017507;28;20186;-93
2022/08/06 05:52:34;;;;;;;2.30;1.30;;;17.70;99.90;;;;;;5014664;28;20221;-94
2022/08/06 05:55:08;;;;;;;2.40;1.27;;;17.70;99.90;;;;;;5015118;28;20210;-94
2022/08/06 05:57:47;;;;;;;2.60;1.57;;;17.70;99.90;;;;;;5009539;28;20312;-94
2022/08/06 06:00:28;;;;;;;1.20;1.10;;;17.60;99.90;;;;;;5012857;28;20206;-94
2022/08/06 06:03:15;;;;;;;1.60;1.40;;;17.60;99.90;;;;;;5007681;28;20214;-94
2022/08/06 06:05:59;;;;;;;1.43;1.07;;;17.50;99.90;;;;;;5001667;28;20218;-95
2022/08/06 06:08:39;;;;;;;1.60;1.50;;;17.40;99.90;;;;;;5009047;28;20205;-93
2022/08/06 06:11:31;;;;;;;3.37;1.70;;;17.30;99.90;;;;;;5001995;28;20270;-95
2022/08/06 06:14:42;;;;;;;1.53;1.30;;;17.30;99.90;;;;;;5002276;28;20216;-94
2022/08/06 06:17:35;;;;;;;1.83;1.40;;;17.10;99.90;;;;;;4999857;28;20260;-94
2022/08/06 06:20:38;;;;;;;2.27;1.40;;;17.10;99.90;;;;;;5009142;28;20202;-95
2022/08/06 06:23:35;;;;;;;2.67;1.67;;;17.10;99.90;;;;;;5000363;28;20218;-95
2022/08/06 06:26:36;;;;;;;2.30;1.50;;;17.00;99.90;;;;;;5008754;28;20210;-95
2022/08/06 06:29:17;;;;;;;3.70;1.60;;;16.90;99.90;;;;;;5001816;28;20229;-95
2022/08/06 06:32:18;;;;;;;3.63;1.40;;;16.80;99.90;;;;;;5002457;28;20557;-96
2022/08/06 06:35:10;;;;;;;2.37;1.40;;;16.70;99.90;;;;;;5020443;28;20221;-96
2022/08/06 06:37:48;;;;;;;1.67;1.47;;;16.70;99.90;;;;;;5020721;28;20260;-94
2022/08/06 06:40:48;;;;;;;2.17;1.60;;;16.70;99.90;;;;;;5019907;28;20554;-96
2022/08/06 06:43:42;;;;;;;2.10;1.37;;;16.70;99.90;;;;;;5021992;28;20213;-95
2022/08/06 06:46:21;;;;;;;1.40;1.30;;;16.60;99.90;;;;;;5037063;28;20189;-95
2022/08/06 06:49:19;;;;;;;1.40;1.30;;;16.60;99.90;;;;;;5036676;28;20239;-94
2022/08/06 06:52:19;;;;;;;3.00;1.40;;;16.60;99.90;;;;;;5125053;23;20260;-94
2022/08/06 06:55:05;;;;;;;1.60;1.40;;;16.50;99.90;;;;;;5037564;28;20236;-95
2022/08/06 06:57:53;;;;;;;1.80;1.40;;;16.50;99.90;;;;;;5035791;28;20236;-95
2022/08/06 07:00:27;;;;;;;2.83;1.50;;;16.50;99.90;;;;;;5033469;28;20296;-95
2022/08/06 07:03:18;;;;;;;2.03;1.40;;;16.50;99.90;;;;;;5028288;28;20222;-95
2022/08/06 07:06:13;;;;;;;5.27;1.30;;;16.50;99.90;;;;;;5019171;28;20216;-95
2022/08/06 07:09:03;;;;;;;2.50;1.40;;;16.50;99.90;;;;;;5020445;28;20213;-95
2022/08/06 07:11:48;;;;;;;2.33;1.20;;;16.40;99.90;;;;;;5021749;28;20264;-95
2022/08/06 07:14:35;;;;;;;1.87;1.63;;;16.40;99.90;;;;;;5020900;28;20332;-94
2022/08/06 07:17:08;;;;;;;2.50;1.30;;;16.40;99.90;;;;;;5019505;28;20225;-96
2022/08/06 07:20:02;;;;;;;2.17;1.70;;;16.30;99.90;;;;;;5018945;28;20205;-96
2022/08/06 07:22:38;;;;;;;1.77;1.50;;;16.40;99.90;;;;;;5017202;28;20232;-94
2022/08/06 07:25:31;;;;;;;2.47;1.50;;;16.30;99.90;;;;;;5019520;28;20256;-94
2022/08/06 07:28:04;;;;;;;3.33;1.57;;;16.20;99.90;;;;;;5019557;28;20225;-94
2022/08/06 07:30:42;;;;;;;1.70;1.60;;;16.20;99.90;;;;;;5021485;28;20205;-94
2022/08/06 07:33:14;;;;;;;2.00;1.80;;;16.20;99.90;;;;;;5027634;28;20213;-96
2022/08/06 07:38:46;;;;;;;3.20;1.57;;;16.10;99.90;;;;;;5039175;28;20216;-95
2022/08/06 07:41:28;;;;;;;2.53;1.50;;;16.10;99.90;;;;;;5038547;28;20193;-95
2022/08/06 07:44:23;;;;;;;2.07;1.60;;;16.00;99.90;;;;;;5025477;28;20196;-95
2022/08/06 07:47:01;;;;;;;2.57;1.40;;;16.00;99.90;;;;;;5035977;28;20205;-95
2022/08/06 07:49:58;;;;;;;2.30;1.40;;;16.00;99.90;;;;;;5025916;28;20202;-95
2022/08/06 07:52:33;;;;;;;4.60;1.60;;;15.90;99.90;;;;;;5018057;28;20229;-95
2022/08/06 07:55:10;;;;;;;4.57;1.47;;;15.90;99.90;;;;;;5019165;28;20205;-95
2022/08/06 07:57:45;;;;;;;1.77;1.50;;;15.90;99.90;;;;;;5019017;28;20205;-95
2022/08/06 08:00:26;;;;;;;1.80;1.30;;;15.90;99.90;;;;;;5018238;28;20261;-96
2022/08/06 08:06:25;;;;;;;1.50;1.40;;;15.80;99.90;;;;;;5023678;28;20201;-95
2022/08/06 08:09:03;;;;;;;3.13;1.70;;;15.80;99.90;;;;;;5020816;28;20205;-95
2022/08/06 08:11:40;;;;;;;1.80;1.70;;;15.70;99.90;;;;;;5020875;28;20213;-94
2022/08/06 08:14:32;;;;;;;2.80;1.27;;;15.60;99.90;;;;;;5020277;28;20214;-95
2022/08/06 08:17:05;;;;;;;1.60;1.50;;;15.60;99.90;;;;;;5042055;28;20545;-93
2022/08/06 08:19:37;;;;;;;1.80;1.70;;;15.50;99.90;;;;;;5046660;28;20232;-94
2022/08/06 08:22:15;;;;;;;2.03;1.30;;;15.40;99.90;;;;;;5042149;28;20241;-94
2022/08/06 08:24:53;;;;;;;2.37;1.70;;;15.40;99.90;;;;;;5036439;28;20213;-94
2022/08/06 08:27:28;;;;;;;1.93;1.70;;;15.40;99.90;;;;;;5036248;28;20213;-96
2022/08/06 08:30:04;;;;;;;1.80;1.70;;;15.40;99.90;;;;;;5033626;28;20204;-95
2022/08/06 08:32:35;;;;;;;2.93;1.67;;;15.40;99.90;;;;;;5036439;28;20209;-95
2022/08/06 08:35:11;;;;;;;2.03;1.47;;;15.30;99.90;;;;;;5037583;28;20189;-95
2022/08/06 08:37:42;;;;;;;1.80;1.53;;;15.30;99.90;;;;;;5029899;28;20214;-95
2022/08/06 08:40:14;;;;;;;4.93;1.60;;;15.30;99.90;;;;;;5019669;28;20245;-95
2022/08/06 08:42:53;;;;;;;2.20;1.77;;;15.30;99.90;;;;;;5021793;28;20236;-96
2022/08/06 08:45:26;;;;;;;2.67;1.53;;;15.20;99.90;;;;;;5024014;28;20297;-94
2022/08/06 08:48:06;;;;;;;1.70;1.60;;;15.20;99.90;;;;;;5030830;28;20352;-94
2022/08/06 08:50:39;;;;;;;4.17;1.60;;;15.10;99.90;;;;;;5035358;28;20277;-94
2022/08/06 08:56:24;;;;;;;4.37;1.80;;;15.10;99.90;;;;;;5032444;28;20280;-96
2022/08/06 08:59:48;;;;;;;1.67;1.57;;;15.00;99.90;;;;;;5030901;28;20229;-96
2022/08/06 09:02:29;;;;;;;2.27;1.70;;;15.00;99.90;;;;;;5024451;28;20312;-94
2022/08/06 09:05:00;;;;;;;2.70;1.70;;;15.00;99.90;;;;;;5020442;28;20280;-94
2022/08/06 09:07:32;;;;;;;3.30;1.60;;;15.00;99.90;;;;;;5019612;28;20205;-94
2022/08/06 09:10:17;;;;;;;1.77;1.63;;;14.90;99.90;;;;;;5025928;28;20220;-95
2022/08/06 09:12:48;;;;;;;2.97;1.60;;;14.90;99.90;;;;;;5028462;28;20259;-94
2022/08/06 09:15:24;;;;;;;1.93;1.53;;;14.90;99.90;;;;;;5018484;28;20209;-94
2022/08/06 09:17:56;;;;;;;3.30;1.70;;;14.90;99.90;;;;;;5018388;28;20288;-94
2022/08/06 09:20:48;;;;;;;3.73;1.60;;;14.90;99.90;;;;;;5016871;28;20702;-94
2022/08/06 09:23:20;;;;;;;2.07;1.97;;;14.90;99.90;;;;;;5018694;28;20577;-95
2022/08/06 09:25:53;;;;;;;1.63;1.37;;;14.90;99.90;;;;;;5017240;28;20243;-94
2022/08/06 09:28:36;;;;;;;2.00;1.60;;;14.80;99.90;;;;;;5017790;28;20688;-94
2022/08/06 09:31:12;;;;;;;1.83;1.40;;;14.70;99.90;;;;;;5016574;28;20224;-95
2022/08/06 09:33:59;;;;;;;1.53;1.43;;;14.70;99.90;;;;;;5017907;28;20701;-94
2022/08/06 09:36:51;;;;;;;1.47;1.37;;;14.70;99.90;;;;;;5018531;28;20212;-93
2022/08/06 09:39:39;;;;;;;2.07;1.67;;;14.70;99.90;;;;;;5016997;28;20284;-95
2022/08/06 09:42:44;;;;;;;1.90;1.80;;;14.60;99.90;;;;;;5015912;28;20206;-95
2022/08/06 09:45:20;;;;;;;2.30;1.60;;;14.60;99.90;;;;;;5017210;28;20231;-95
2022/08/06 09:48:14;;;;;;;1.57;1.47;;;14.60;99.90;;;;;;5016487;28;20227;-95
2022/08/06 09:50:51;;;;;;;2.03;1.53;;;14.60;99.90;;;;;;5015928;28;20201;-96
2022/08/06 09:53:23;;;;;;;3.33;1.30;;;14.60;99.90;;;;;;5017218;28;20716;-94
2022/08/06 09:55:58;;;;;;;3.10;1.80;;;14.60;99.90;;;;;;5015680;28;20269;-95
2022/08/06 09:58:34;;;;;;;1.57;1.47;;;14.60;99.90;;;;;;5016978;28;20213;-95
2022/08/06 10:01:18;;;;;;;1.53;1.40;;;14.60;99.90;;;;;;5015003;28;20239;-95
2022/08/06 10:03:56;;;;;;;1.70;1.40;;;14.60;99.90;;;;;;5016975;28;20216;-95
2022/08/06 10:06:53;;;;;;;3.00;1.47;;;14.60;99.90;;;;;;5016883;28;20213;-95
2022/08/06 10:09:26;;;;;;;3.00;1.50;;;14.60;99.90;;;;;;5015626;28;20206;-95
2022/08/06 10:12:21;;;;;;;1.57;1.47;;;14.50;99.90;;;;;;5018876;28;20293;-95
2022/08/06 10:14:56;;;;;;;2.67;1.60;;;14.50;99.90;;;;;;5017499;28;20213;-95
2022/08/06 10:17:30;;;;;;;2.17;1.60;;;14.50;99.90;;;;;;5018149;28;20289;-95
2022/08/06 10:20:24;;;;;;;2.57;1.50;;;14.50;99.90;;;;;;5031321;28;20232;-96
2022/08/06 10:23:03;;;;;;;1.70;1.53;;;14.50;99.90;;;;;;5036946;28;20198;-95
2022/08/06 10:25:37;;;;;;;1.60;1.50;;;14.40;99.90;;;;;;5036850;28;20261;-95
2022/08/06 10:28:16;;;;;;;2.33;1.60;;;14.40;99.90;;;;;;5036697;28;20210;-95
2022/08/06 10:30:48;;;;;;;2.50;1.40;;;14.40;99.90;;;;;;5027501;28;20252;-95
2022/08/06 10:33:21;;;;;;;2.50;1.90;;;14.30;99.90;;;;;;5016557;28;20264;-95
2022/08/06 10:36:06;;;;;;;2.30;1.90;;;14.40;99.90;;;;;;5028755;28;20281;-95
2022/08/06 10:38:39;;;;;;;2.50;1.90;;;14.30;99.90;;;;;;5034213;28;20212;-95
2022/08/06 10:41:22;;;;;;;3.03;2.00;;;14.30;99.90;;;;;;5033955;28;20217;-95
2022/08/06 10:44:14;;;;;;;1.60;1.50;;;14.30;99.90;;;;;;5034424;28;20257;-95
2022/08/06 10:46:45;;;;;;;1.70;1.60;;;14.30;99.90;;;;;;5036282;28;20194;-94
2022/08/06 10:49:20;;;;;;;2.87;1.60;;;14.30;99.90;;;;;;5039605;28;20214;-94
2022/08/06 10:52:15;;;;;;;2.63;2.00;;;14.30;99.90;;;;;;5037141;28;20209;-95
2022/08/06 10:54:48;;;;;;;1.80;1.60;;;14.30;99.90;;;;;;5038774;28;20209;-95
2022/08/06 10:57:21;;;;;;;3.73;2.00;;;14.30;99.90;;;;;;5031224;28;20209;-95
2022/08/06 11:00:07;;;;;;;2.10;1.80;;;14.30;99.90;;;;;;5023311;28;20237;-94
2022/08/06 11:02:47;;;;;;;1.83;1.70;;;14.20;99.90;;;;;;5022670;28;20214;-94
2022/08/06 11:05:30;;;;;;;1.97;1.80;;;14.20;99.90;;;;;;5021080;28;20618;-94
2022/08/06 11:08:55;;;;;;;2.17;1.80;;;14.10;99.90;;;;;;5022298;28;20244;-94
2022/08/06 11:12:00;;;;;;;3.87;2.13;;;14.00;99.90;;;;;;5018370;28;20205;-93
2022/08/06 11:14:41;;;;;;;2.23;1.80;;;14.00;99.90;;;;;;5036980;28;20202;-94
2022/08/06 11:17:14;;;;;;;3.93;1.70;;;13.90;99.90;;;;;;5010454;28;20742;-94
2022/08/06 11:19:48;;;;;;;2.00;1.67;;;13.90;99.90;;;;;;5010503;28;20232;-94
2022/08/06 11:22:45;;;;;;;4.00;2.07;;;13.90;99.90;;;;;;5006166;28;20274;-94
2022/08/06 11:25:42;;;;;;;2.30;1.73;;;13.90;99.90;;;;;;5001629;28;20268;-94
2022/08/06 11:28:15;;;;;;;2.23;2.03;;;13.80;99.90;;;;;;5000784;28;20210;-95
2022/08/06 11:30:48;;;;;;;3.20;2.20;;;13.80;99.90;;;;;;5000112;28;20218;-94
2022/08/06 11:33:22;;;;;;;2.77;2.07;;;13.80;99.90;;;;;;5000248;28;20217;-95
2022/08/06 11:35:54;;;;;;;3.13;2.30;;;13.70;99.90;;;;;;5000453;28;20237;-95
2022/08/06 11:39:00;;;;;;;5.43;2.27;;;13.70;99.90;;;;;;5000092;28;20647;-95
2022/08/06 11:41:54;;;;;;;3.97;2.50;;;13.70;99.90;;;;;;5000724;28;20238;-96
2022/08/06 11:44:29;;;;;;;3.17;2.27;;;13.70;99.90;;;;;;5000772;28;20210;-95
2022/08/06 11:47:19;;;;;;;3.90;2.30;;;13.70;99.90;;;;;;5003211;28;20575;-94
2022/08/06 11:50:02;;;;;;;3.90;2.40;;;13.70;99.90;;;;;;5000707;28;20304;-94
2022/08/06 11:52:43;;;;;;;3.00;2.27;;;13.70;99.90;;;;;;5001232;28;20568;-94
2022/08/06 11:55:18;;;;;;;2.53;2.33;;;13.70;99.90;;;;;;5115838;23;20264;-94
2022/08/06 11:58:22;;;;;;;4.57;2.47;;;13.70;99.90;;;;;;5030058;28;20241;-94
2022/08/06 12:01:00;;;;;;;3.13;2.00;;;13.70;99.90;;;;;;5036799;28;20248;-94
2022/08/06 12:03:52;;;;;;;3.27;2.60;;;13.70;99.90;;;;;;5037099;28;20193;-95
2022/08/06 12:06:24;;;;;;;2.50;2.30;;;13.70;99.90;;;;;;5036471;28;20206;-94
2022/08/06 12:09:17;;;;;;;6.37;2.33;;;13.70;99.90;;;;;;5024551;28;20213;-95
2022/08/06 12:12:36;;;;;;;3.60;2.10;;;13.70;99.90;;;;;;5021325;28;20221;-95
2022/08/06 12:15:40;;;;;;;2.83;2.17;;;13.60;99.90;;;;;;5024448;28;20209;-95
2022/08/06 12:18:39;;;;;;;3.17;2.37;;;13.60;99.90;;;;;;5020291;28;20614;-94
2022/08/06 12:21:12;;;;;;;3.87;2.20;;;13.60;99.90;;;;;;5020016;28;20705;-95
2022/08/06 12:23:45;;;;;;;2.67;2.13;;;13.60;99.90;;;;;;5020480;28;20293;-94
2022/08/06 12:26:31;;;;;;;3.93;2.30;;;13.50;99.90;;;;;;5019557;28;20218;-95
2022/08/06 12:29:07;;;;;;;2.30;1.93;;;13.50;99.90;;;;;;5020313;28;20293;-94
2022/08/06 12:31:41;;;;;;;4.53;2.43;;;13.50;99.90;;;;;;5020244;28;20641;-94
2022/08/06 12:34:29;;;;;;;3.13;2.13;;;13.50;99.90;;;;;;5019085;28;20221;-95
2022/08/06 12:37:01;;;;;;;2.70;2.50;;;13.50;99.90;;;;;;5019436;28;20271;-95
2022/08/06 12:42:30;;;;;;;3.97;2.30;;;13.50;99.90;;;;;;5036719;28;20193;-96
2022/08/06 12:45:23;;;;;;;2.57;2.20;;;13.40;99.90;;;;;;5035636;28;20213;-95
2022/08/06 12:48:18;;;;;;;2.80;2.60;;;13.50;99.90;;;;;;5036671;28;20220;-94
2022/08/06 12:50:50;;;;;;;2.47;2.27;;;13.40;99.90;;;;;;5036754;28;20193;-95
2022/08/06 12:53:22;;;;;;;2.60;2.40;;;13.30;99.90;;;;;;5037033;28;20292;-95
2022/08/06 12:55:54;;;;;;;3.23;2.37;;;13.30;99.90;;;;;;5037800;28;20201;-94
2022/08/06 12:58:33;;;;;;;2.27;2.00;;;13.30;99.90;;;;;;5037890;28;20210;-96
2022/08/06 13:01:29;;;;;;;3.57;2.20;;;13.30;99.90;;;;;;5036864;28;20221;-95
2022/08/06 13:04:24;;;;;;;2.27;2.07;;;13.30;99.90;;;;;;5037660;28;20204;-94
2022/08/06 13:07:03;;;;;;;3.23;2.37;;;13.30;99.90;;;;;;5037534;28;20197;-95
2022/08/06 13:09:41;;;;;;;2.70;2.50;;;13.20;99.90;;;;;;5037098;28;20220;-95
2022/08/06 13:12:33;;;;;;;3.50;2.63;;;13.20;99.90;;;;;;5036748;28;20281;-95
2022/08/06 13:15:26;;;;;;;2.80;2.30;;;13.20;99.90;;;;;;5037352;28;20194;-95
2022/08/06 13:18:19;;;;;;;6.10;2.97;;;13.30;99.90;;;;;;5037445;28;20233;-95
2022/08/06 13:21:25;;;;;;;4.40;2.67;;;13.40;99.90;;;;;;5023633;28;20324;-95
2022/08/06 13:24:28;;;;;;;2.40;2.20;;;13.40;99.90;;;;;;5019353;28;20209;-95
2022/08/06 13:27:05;;;;;;;3.07;2.37;;;13.40;99.90;;;;;;5019231;28;20209;-95
2022/08/06 13:29:37;;;;;;;3.97;2.40;;;13.50;99.90;;;;;;5023623;28;20211;-95
2022/08/06 13:32:30;;;;;;;2.70;2.30;;;13.40;99.90;;;;;;5019312;28;20228;-95
2022/08/06 13:35:10;;;;;;;2.73;2.53;;;13.30;99.90;;;;;;5019248;28;20614;-96
2022/08/06 13:37:52;;;;;;;4.50;2.57;;;13.20;99.90;;;;;;5018430;28;20213;-95
2022/08/06 13:40:45;;;;;;;5.33;2.70;;;13.20;99.90;;;;;;5020310;28;20205;-95
2022/08/06 13:43:37;;;;;;;3.50;2.37;;;13.30;99.90;;;;;;5019043;28;20219;-95
2022/08/06 13:46:16;;;;;;;5.40;2.70;;;13.30;99.90;;;;;;5018310;28;20201;-95
2022/08/06 13:48:58;;;;;;;4.70;3.30;;;13.30;99.90;;;;;;5018864;28;20264;-95
2022/08/06 13:51:31;;;;;;;3.10;2.53;;;13.30;99.90;;;;;;5016398;28;20201;-95
2022/08/06 13:54:08;;;;;;;3.57;2.50;;;13.40;99.90;;;;;;5019756;28;20210;-95
2022/08/06 13:56:46;;;;;;;4.10;2.70;;;13.40;99.90;;;;;;5019381;28;20249;-93
2022/08/06 13:59:24;;;;;;;3.10;2.50;;;13.40;99.90;;;;;;5019473;28;20296;-95
2022/08/06 14:02:10;;;;;;;3.27;2.37;;;13.40;99.90;;;;;;5019687;28;20292;-95
2022/08/06 14:04:42;;;;;;;7.63;2.57;;;13.50;99.90;;;;;;5021950;28;20271;-95
2022/08/06 14:07:19;;;;;;;3.57;2.40;;;13.50;99.90;;;;;;5035721;28;20197;-95
2022/08/06 14:09:56;;;;;;;2.83;2.30;;;13.60;99.90;;;;;;5035913;28;20240;-95
2022/08/06 14:12:40;;;;;;;2.93;2.50;;;13.60;99.90;;;;;;5031116;28;20225;-95
2022/08/06 14:15:15;;;;;;;3.03;2.57;;;13.60;99.90;;;;;;5019891;28;20213;-95
2022/08/06 14:17:51;;;;;;;5.60;2.73;;;13.70;99.90;;;;;;5018715;28;20213;-95
2022/08/06 14:20:23;;;;;;;5.13;2.80;;;13.80;99.90;;;;;;5019346;28;20209;-95
2022/08/06 14:22:56;;;;;;;4.63;2.77;;;13.80;99.90;;;;;;5019740;28;20225;-95
2022/08/06 14:25:32;;;;;;;4.17;2.90;;;13.90;99.90;;;;;;5020426;28;20273;-95
2022/08/06 14:28:23;;;;;;;6.17;3.40;;;13.90;99.90;;;;;;5019845;28;20216;-95
2022/08/06 14:30:55;;;;;;;4.47;2.87;;;14.00;99.90;;;;;;5020152;28;20269;-95
2022/08/06 14:33:29;;;;;;;4.53;2.87;;;14.10;99.90;;;;;;5020718;28;20677;-95
2022/08/06 14:36:08;;;;;;;4.30;2.70;;;14.20;99.90;;;;;;5020064;28;20275;-96
2022/08/06 14:38:40;;;;;;;2.57;2.37;;;14.20;99.90;;;;;;5020986;28;20218;-95
2022/08/06 14:46:45;;;;;;;4.20;2.40;;;14.50;99.90;;;;;;5040285;28;20224;-95
2022/08/06 14:49:19;;;;;;;2.90;2.50;;;14.60;99.90;;;;;;5040067;28;20673;-94
2022/08/06 14:51:51;;;;;;;2.53;2.23;;;14.60;99.90;;;;;;5039611;28;20277;-96
2022/08/06 14:54:44;;;;;;;2.50;2.30;;;14.80;99.90;;;;;;5040956;28;20292;-95
2022/08/06 14:57:25;;;;;;;8.20;2.70;;;14.90;99.90;;;;;;5040800;28;20224;-95
2022/08/06 15:00:19;;;;;;;4.37;2.47;;;15.10;99.90;;;;;;5039842;28;20237;-95
2022/08/06 15:03:04;;;;;;;3.00;2.30;;;15.40;99.90;;;;;;5040011;28;20276;-96
2022/08/06 15:05:37;;;;;;;3.63;2.50;;;15.60;99.90;;;;;;5039654;28;20296;-95
2022/08/06 15:08:29;;;;;;;2.77;2.00;;;15.80;99.90;;;;;;5039076;28;20229;-95
2022/08/06 15:11:01;;;;;;;3.00;2.00;;;16.00;99.90;;;;;;5039544;28;20650;-95
2022/08/06 15:13:44;;;;;;;2.87;2.13;;;16.30;99.90;;;;;;5040375;28;20239;-95
2022/08/06 15:16:25;;;;;;;4.87;2.00;;;16.50;99.90;;;;;;5040728;28;20666;-95
2022/08/06 15:19:17;;;;;;;4.07;2.10;;;16.70;99.90;;;;;;5038548;28;20236;-95
2022/08/06 15:22:09;;;;;;;2.70;2.17;;;16.80;99.90;;;;;;5040090;28;20323;-95
2022/08/06 15:25:00;;;;;;;2.30;2.10;;;16.90;99.90;;;;;;5046590;28;20220;-95